sensor_id;sensor_type;location;lat;lon;timestamp;temperature;humidity
59703;DHT22;45570;48.782;8.332;2022-07-21T00:01:54;19.40;99.90
59703;DHT22;45570;48.782;8.332;2022-07-21T00:04:24;19.40;99.90
59703;DHT22;45570;48.782;8.332;2022-07-21T00:07:01;19.50;99.90
59703;DHT22;45570;48.782;8.332;2022-07-21T00:09:43;19.50;99.90
59703;DHT22;45570;48.782;8.332;2022-07-21T00:12:12;19.50;99.90
59703;DHT22;45570;48.782;8.332;2022-07-21T00:15:26;19.60;99.90
59703;DHT22;45570;48.782;8.332;2022-07-21T00:17:55;19.60;99.90
59703;DHT22;45570;48.782;8.332;2022-07-21T00:20:26;19.60;99.90
59703;DHT22;45570;48.782;8.332;2022-07-21T00:22:57;19.60;99.90
59703;DHT22;45570;48.782;8.332;2022-07-21T00:25:26;19.60;99.90
59703;DHT22;45570;48.782;8.332;2022-07-21T00:28:01;19.60;99.90
59703;DHT22;45570;48.782;8.332;2022-07-21T00:30:31;19.70;99.90
59703;DHT22;45570;48.782;8.332;2022-07-21T00:32:59;19.70;99.90
59703;DHT22;45570;48.782;8.332;2022-07-21T00:35:30;19.60;99.90
59703;DHT22;45570;48.782;8.332;2022-07-21T00:41:20;19.60;99.90
59703;DHT22;45570;48.782;8.332;2022-07-21T00:43:49;19.50;99.90
59703;DHT22;45570;48.782;8.332;2022-07-21T00:46:19;19.50;99.90
59703;DHT22;45570;48.782;8.332;2022-07-21T00:48:48;19.40;99.90
59703;DHT22;45570;48.782;8.332;2022-07-21T00:51:19;19.50;99.90
59703;DHT22;45570;48.782;8.332;2022-07-21T00:53:48;19.40;99.90
59703;DHT22;45570;48.782;8.332;2022-07-21T00:56:17;19.40;99.90
59703;DHT22;45570;48.782;8.332;2022-07-21T00:58:49;19.40;99.90
59703;DHT22;45570;48.782;8.332;2022-07-21T01:01:18;19.40;99.90
59703;DHT22;45570;48.782;8.332;2022-07-21T01:03:47;19.30;99.90
59703;DHT22;45570;48.782;8.332;2022-07-21T01:06:16;19.30;99.90
59703;DHT22;45570;48.782;8.332;2022-07-21T01:08:46;19.30;99.90
59703;DHT22;45570;48.782;8.332;2022-07-21T01:11:15;19.30;99.90
59703;DHT22;45570;48.782;8.332;2022-07-21T01:13:54;19.30;99.90
59703;DHT22;45570;48.782;8.332;2022-07-21T01:19:32;19.30;99.90
59703;DHT22;45570;48.782;8.332;2022-07-21T01:22:03;19.30;99.90
59703;DHT22;45570;48.782;8.332;2022-07-21T01:24:33;19.30;99.90
59703;DHT22;45570;48.782;8.332;2022-07-21T01:27:03;19.30;99.90
59703;DHT22;45570;48.782;8.332;2022-07-21T01:29:31;19.30;99.90
59703;DHT22;45570;48.782;8.332;2022-07-21T01:32:00;19.30;99.90
59703;DHT22;45570;48.782;8.332;2022-07-21T01:34:29;19.30;99.90
59703;DHT22;45570;48.782;8.332;2022-07-21T01:36:58;19.30;99.90
59703;DHT22;45570;48.782;8.332;2022-07-21T01:39:28;19.30;99.90
59703;DHT22;45570;48.782;8.332;2022-07-21T01:42:15;19.30;99.90
59703;DHT22;45570;48.782;8.332;2022-07-21T01:44:44;19.30;99.90
59703;DHT22;45570;48.782;8.332;2022-07-21T01:47:13;19.30;99.90
59703;DHT22;45570;48.782;8.332;2022-07-21T01:49:42;19.30;99.90
59703;DHT22;45570;48.782;8.332;2022-07-21T01:52:11;19.30;99.90
59703;DHT22;45570;48.782;8.332;2022-07-21T01:55:09;19.30;99.90
59703;DHT22;45570;48.782;8.332;2022-07-21T01:57:48;19.30;99.90
59703;DHT22;45570;48.782;8.332;2022-07-21T02:00:17;19.20;99.90
59703;DHT22;45570;48.782;8.332;2022-07-21T02:02:47;19.20;99.90
59703;DHT22;45570;48.782;8.332;2022-07-21T02:05:15;19.20;99.90
59703;DHT22;45570;48.782;8.332;2022-07-21T02:07:44;19.20;99.90
59703;DHT22;45570;48.782;8.332;2022-07-21T02:10:15;19.10;99.90
59703;DHT22;45570;48.782;8.332;2022-07-21T02:12:43;19.10;99.90
59703;DHT22;45570;48.782;8.332;2022-07-21T02:15:12;19.00;99.90
59703;DHT22;45570;48.782;8.332;2022-07-21T02:17:41;19.00;99.90
59703;DHT22;45570;48.782;8.332;2022-07-21T02:20:13;19.10;99.90
59703;DHT22;45570;48.782;8.332;2022-07-21T02:22:44;19.10;99.90
59703;DHT22;45570;48.782;8.332;2022-07-21T02:25:19;19.00;99.90
59703;DHT22;45570;48.782;8.332;2022-07-21T02:27:56;19.10;99.90
59703;DHT22;45570;48.782;8.332;2022-07-21T02:30:24;19.00;99.90
59703;DHT22;45570;48.782;8.332;2022-07-21T02:32:53;19.10;99.90
59703;DHT22;45570;48.782;8.332;2022-07-21T02:35:24;19.10;99.90
59703;DHT22;45570;48.782;8.332;2022-07-21T02:37:56;19.10;99.90
59703;DHT22;45570;48.782;8.332;2022-07-21T02:40:52;19.20;99.90
59703;DHT22;45570;48.782;8.332;2022-07-21T02:43:50;19.20;99.90
59703;DHT22;45570;48.782;8.332;2022-07-21T02:46:18;19.00;99.90
59703;DHT22;45570;48.782;8.332;2022-07-21T02:48:47;19.00;99.90
59703;DHT22;45570;48.782;8.332;2022-07-21T02:51:17;19.10;99.90
59703;DHT22;45570;48.782;8.332;2022-07-21T02:53:46;19.10;99.90
59703;DHT22;45570;48.782;8.332;2022-07-21T02:56:16;19.10;99.90
59703;DHT22;45570;48.782;8.332;2022-07-21T02:58:45;19.10;99.90
59703;DHT22;45570;48.782;8.332;2022-07-21T03:01:14;19.10;99.90
59703;DHT22;45570;48.782;8.332;2022-07-21T03:03:43;19.20;99.90
59703;DHT22;45570;48.782;8.332;2022-07-21T03:06:12;19.20;99.90
59703;DHT22;45570;48.782;8.332;2022-07-21T03:08:40;19.20;99.90
59703;DHT22;45570;48.782;8.332;2022-07-21T03:11:22;19.20;99.90
59703;DHT22;45570;48.782;8.332;2022-07-21T03:13:52;19.20;99.90
59703;DHT22;45570;48.782;8.332;2022-07-21T03:16:21;19.10;99.90
59703;DHT22;45570;48.782;8.332;2022-07-21T03:18:49;19.10;99.90
59703;DHT22;45570;48.782;8.332;2022-07-21T03:21:19;19.10;99.90
59703;DHT22;45570;48.782;8.332;2022-07-21T03:23:47;19.10;99.90
59703;DHT22;45570;48.782;8.332;2022-07-21T03:26:17;19.10;99.90
59703;DHT22;45570;48.782;8.332;2022-07-21T03:28:47;19.10;99.90
59703;DHT22;45570;48.782;8.332;2022-07-21T03:31:16;19.10;99.90
59703;DHT22;45570;48.782;8.332;2022-07-21T03:33:45;19.00;99.90
59703;DHT22;45570;48.782;8.332;2022-07-21T03:36:14;19.10;99.90
59703;DHT22;45570;48.782;8.332;2022-07-21T03:38:43;19.00;99.90
59703;DHT22;45570;48.782;8.332;2022-07-21T03:41:12;19.00;99.90
59703;DHT22;45570;48.782;8.332;2022-07-21T03:43:41;19.00;99.90
59703;DHT22;45570;48.782;8.332;2022-07-21T03:46:11;18.90;99.90
59703;DHT22;45570;48.782;8.332;2022-07-21T03:48:40;18.80;99.90
59703;DHT22;45570;48.782;8.332;2022-07-21T03:51:09;18.80;99.90
59703;DHT22;45570;48.782;8.332;2022-07-21T03:53:38;18.80;99.90
59703;DHT22;45570;48.782;8.332;2022-07-21T03:56:07;18.90;99.90
59703;DHT22;45570;48.782;8.332;2022-07-21T03:58:35;18.90;99.90
59703;DHT22;45570;48.782;8.332;2022-07-21T04:01:04;18.80;99.90
59703;DHT22;45570;48.782;8.332;2022-07-21T04:03:35;18.70;99.90
59703;DHT22;45570;48.782;8.332;2022-07-21T04:06:04;18.70;99.90
59703;DHT22;45570;48.782;8.332;2022-07-21T04:08:37;18.70;99.90
59703;DHT22;45570;48.782;8.332;2022-07-21T06:06:01;19.80;99.90
59703;DHT22;45570;48.782;8.332;2022-07-21T06:14:09;19.80;99.90
59703;DHT22;45570;48.782;8.332;2022-07-21T06:16:38;19.80;99.90
59703;DHT22;45570;48.782;8.332;2022-07-21T06:19:06;19.80;99.90
59703;DHT22;45570;48.782;8.332;2022-07-21T06:21:35;19.90;99.90
59703;DHT22;45570;48.782;8.332;2022-07-21T06:24:12;20.00;99.90
59703;DHT22;45570;48.782;8.332;2022-07-21T06:26:42;20.10;99.90
59703;DHT22;45570;48.782;8.332;2022-07-21T06:29:12;20.20;99.90
59703;DHT22;45570;48.782;8.332;2022-07-21T06:31:41;20.20;99.90
59703;DHT22;45570;48.782;8.332;2022-07-21T06:34:09;20.20;99.90
59703;DHT22;45570;48.782;8.332;2022-07-21T06:36:38;20.30;99.90
59703;DHT22;45570;48.782;8.332;2022-07-21T06:39:08;20.40;99.90
59703;DHT22;45570;48.782;8.332;2022-07-21T06:41:39;20.50;99.90
59703;DHT22;45570;48.782;8.332;2022-07-21T06:44:13;20.60;99.90
59703;DHT22;45570;48.782;8.332;2022-07-21T06:46:42;20.70;99.90
59703;DHT22;45570;48.782;8.332;2022-07-21T06:49:11;20.80;99.90
59703;DHT22;45570;48.782;8.332;2022-07-21T06:51:40;20.90;99.90
59703;DHT22;45570;48.782;8.332;2022-07-21T06:54:09;21.00;99.90
59703;DHT22;45570;48.782;8.332;2022-07-21T06:56:37;21.20;99.90
59703;DHT22;45570;48.782;8.332;2022-07-21T06:59:06;21.20;99.90
59703;DHT22;45570;48.782;8.332;2022-07-21T07:01:36;21.30;99.90
59703;DHT22;45570;48.782;8.332;2022-07-21T07:04:06;21.40;99.90
59703;DHT22;45570;48.782;8.332;2022-07-21T07:06:35;21.70;99.90
59703;DHT22;45570;48.782;8.332;2022-07-21T07:09:04;21.70;99.90
59703;DHT22;45570;48.782;8.332;2022-07-21T07:11:33;21.80;99.90
59703;DHT22;45570;48.782;8.332;2022-07-21T07:14:02;21.90;99.90
59703;DHT22;45570;48.782;8.332;2022-07-21T07:16:45;21.90;99.90
59703;DHT22;45570;48.782;8.332;2022-07-21T07:19:14;22.00;99.90
59703;DHT22;45570;48.782;8.332;2022-07-21T07:21:43;22.00;99.90
59703;DHT22;45570;48.782;8.332;2022-07-21T07:24:12;22.00;99.90
59703;DHT22;45570;48.782;8.332;2022-07-21T07:26:41;22.10;99.90
59703;DHT22;45570;48.782;8.332;2022-07-21T07:29:10;22.10;99.90
59703;DHT22;45570;48.782;8.332;2022-07-21T07:31:39;22.10;99.90
59703;DHT22;45570;48.782;8.332;2022-07-21T07:34:09;22.10;99.90
59703;DHT22;45570;48.782;8.332;2022-07-21T07:36:38;22.10;99.90
59703;DHT22;45570;48.782;8.332;2022-07-21T07:39:11;22.10;99.90
59703;DHT22;45570;48.782;8.332;2022-07-21T07:41:41;22.10;99.90
59703;DHT22;45570;48.782;8.332;2022-07-21T07:44:10;22.00;99.90
59703;DHT22;45570;48.782;8.332;2022-07-21T07:46:39;22.00;99.90
59703;DHT22;45570;48.782;8.332;2022-07-21T07:49:09;22.00;99.90
59703;DHT22;45570;48.782;8.332;2022-07-21T07:51:45;22.20;99.90
59703;DHT22;45570;48.782;8.332;2022-07-21T07:54:14;22.20;99.90
59703;DHT22;45570;48.782;8.332;2022-07-21T07:56:42;22.40;99.90
59703;DHT22;45570;48.782;8.332;2022-07-21T07:59:11;22.60;99.90
59703;DHT22;45570;48.782;8.332;2022-07-21T08:01:40;22.90;99.90
59703;DHT22;45570;48.782;8.332;2022-07-21T08:04:11;23.60;99.90
59703;DHT22;45570;48.782;8.332;2022-07-21T08:06:42;23.70;99.90
59703;DHT22;45570;48.782;8.332;2022-07-21T08:09:11;23.70;99.90
59703;DHT22;45570;48.782;8.332;2022-07-21T08:11:41;23.50;99.90
59703;DHT22;45570;48.782;8.332;2022-07-21T08:14:11;23.70;99.90
59703;DHT22;45570;48.782;8.332;2022-07-21T08:16:40;23.80;99.90
59703;DHT22;45570;48.782;8.332;2022-07-21T08:19:11;23.80;99.90
59703;DHT22;45570;48.782;8.332;2022-07-21T08:21:40;23.90;99.90
59703;DHT22;45570;48.782;8.332;2022-07-21T08:24:29;24.10;99.90
59703;DHT22;45570;48.782;8.332;2022-07-21T08:26:58;23.90;99.90
59703;DHT22;45570;48.782;8.332;2022-07-21T08:29:27;23.80;99.90
59703;DHT22;45570;48.782;8.332;2022-07-21T08:31:56;23.70;99.90
59703;DHT22;45570;48.782;8.332;2022-07-21T08:34:26;23.50;99.90
59703;DHT22;45570;48.782;8.332;2022-07-21T08:36:55;23.30;99.90
59703;DHT22;45570;48.782;8.332;2022-07-21T08:39:24;23.30;99.90
59703;DHT22;45570;48.782;8.332;2022-07-21T08:41:53;23.70;99.90
59703;DHT22;45570;48.782;8.332;2022-07-21T08:44:22;24.30;99.90
59703;DHT22;45570;48.782;8.332;2022-07-21T08:46:51;24.40;99.90
59703;DHT22;45570;48.782;8.332;2022-07-21T08:49:21;24.50;99.90
59703;DHT22;45570;48.782;8.332;2022-07-21T08:51:52;24.60;99.90
59703;DHT22;45570;48.782;8.332;2022-07-21T08:54:21;24.80;99.90
59703;DHT22;45570;48.782;8.332;2022-07-21T08:56:50;25.10;99.90
59703;DHT22;45570;48.782;8.332;2022-07-21T08:59:19;24.90;99.90
59703;DHT22;45570;48.782;8.332;2022-07-21T09:01:58;24.80;99.90
59703;DHT22;45570;48.782;8.332;2022-07-21T09:04:28;24.60;99.90
59703;DHT22;45570;48.782;8.332;2022-07-21T09:07:07;24.60;99.90
59703;DHT22;45570;48.782;8.332;2022-07-21T09:09:36;24.60;99.90
59703;DHT22;45570;48.782;8.332;2022-07-21T09:12:07;24.50;99.90
59703;DHT22;45570;48.782;8.332;2022-07-21T09:14:35;24.60;99.90
59703;DHT22;45570;48.782;8.332;2022-07-21T09:17:05;24.90;99.90
59703;DHT22;45570;48.782;8.332;2022-07-21T09:19:37;25.20;99.90
59703;DHT22;45570;48.782;8.332;2022-07-21T09:22:15;25.80;99.90
59703;DHT22;45570;48.782;8.332;2022-07-21T09:24:50;26.50;99.90
59703;DHT22;45570;48.782;8.332;2022-07-21T09:27:21;26.70;99.90
59703;DHT22;45570;48.782;8.332;2022-07-21T09:29:52;26.60;99.90
59703;DHT22;45570;48.782;8.332;2022-07-21T09:32:23;26.70;99.90
59703;DHT22;45570;48.782;8.332;2022-07-21T09:34:55;26.90;99.90
59703;DHT22;45570;48.782;8.332;2022-07-21T09:37:34;27.10;99.90
59703;DHT22;45570;48.782;8.332;2022-07-21T09:40:05;26.90;99.90
59703;DHT22;45570;48.782;8.332;2022-07-21T09:42:37;26.60;99.90
59703;DHT22;45570;48.782;8.332;2022-07-21T09:45:07;26.50;99.90
59703;DHT22;45570;48.782;8.332;2022-07-21T09:47:36;26.60;99.90
59703;DHT22;45570;48.782;8.332;2022-07-21T09:50:08;26.20;99.90
59703;DHT22;45570;48.782;8.332;2022-07-21T09:52:57;26.00;99.90
59703;DHT22;45570;48.782;8.332;2022-07-21T09:55:26;25.80;99.90
59703;DHT22;45570;48.782;8.332;2022-07-21T09:57:56;25.70;99.90
59703;DHT22;45570;48.782;8.332;2022-07-21T10:00:26;26.20;99.90
59703;DHT22;45570;48.782;8.332;2022-07-21T10:02:55;26.80;99.90
59703;DHT22;45570;48.782;8.332;2022-07-21T10:05:25;27.50;99.90
59703;DHT22;45570;48.782;8.332;2022-07-21T10:08:02;27.80;99.90
59703;DHT22;45570;48.782;8.332;2022-07-21T10:10:34;27.90;99.90
59703;DHT22;45570;48.782;8.332;2022-07-21T10:13:23;27.80;99.90
59703;DHT22;45570;48.782;8.332;2022-07-21T10:15:53;27.40;99.90
59703;DHT22;45570;48.782;8.332;2022-07-21T10:18:25;27.40;99.90
59703;DHT22;45570;48.782;8.332;2022-07-21T10:20:59;27.60;99.90
59703;DHT22;45570;48.782;8.332;2022-07-21T10:23:35;28.00;99.90
59703;DHT22;45570;48.782;8.332;2022-07-21T10:26:05;28.30;99.90
59703;DHT22;45570;48.782;8.332;2022-07-21T10:28:34;28.40;99.90
59703;DHT22;45570;48.782;8.332;2022-07-21T10:31:14;28.20;99.90
59703;DHT22;45570;48.782;8.332;2022-07-21T10:33:54;28.20;99.90
59703;DHT22;45570;48.782;8.332;2022-07-21T10:36:42;28.20;99.90
59703;DHT22;45570;48.782;8.332;2022-07-21T10:39:25;28.30;99.90
59703;DHT22;45570;48.782;8.332;2022-07-21T10:41:57;28.40;99.90
59703;DHT22;45570;48.782;8.332;2022-07-21T10:44:47;28.10;99.90
59703;DHT22;45570;48.782;8.332;2022-07-21T10:47:19;27.90;99.90
59703;DHT22;45570;48.782;8.332;2022-07-21T10:49:53;28.10;99.90
59703;DHT22;45570;48.782;8.332;2022-07-21T10:52:57;28.50;99.90
59703;DHT22;45570;48.782;8.332;2022-07-21T10:55:29;28.50;99.90
59703;DHT22;45570;48.782;8.332;2022-07-21T10:58:13;28.40;99.90
59703;DHT22;45570;48.782;8.332;2022-07-21T11:00:47;27.90;99.90
59703;DHT22;45570;48.782;8.332;2022-07-21T11:03:23;27.80;99.90
59703;DHT22;45570;48.782;8.332;2022-07-21T11:06:15;28.00;99.90
59703;DHT22;45570;48.782;8.332;2022-07-21T11:09:06;28.30;99.90
59703;DHT22;45570;48.782;8.332;2022-07-21T11:11:38;28.70;99.90
59703;DHT22;45570;48.782;8.332;2022-07-21T11:14:11;29.30;99.90
59703;DHT22;45570;48.782;8.332;2022-07-21T11:16:58;29.40;99.90
59703;DHT22;45570;48.782;8.332;2022-07-21T11:19:32;28.80;99.90
59703;DHT22;45570;48.782;8.332;2022-07-21T11:22:04;28.30;99.90
59703;DHT22;45570;48.782;8.332;2022-07-21T11:24:34;27.80;99.90
59703;DHT22;45570;48.782;8.332;2022-07-21T11:27:06;27.90;99.90
59703;DHT22;45570;48.782;8.332;2022-07-21T11:29:40;28.20;99.90
59703;DHT22;45570;48.782;8.332;2022-07-21T11:32:10;28.20;99.90
59703;DHT22;45570;48.782;8.332;2022-07-21T11:34:43;28.00;99.90
59703;DHT22;45570;48.782;8.332;2022-07-21T11:37:14;27.70;99.90
59703;DHT22;45570;48.782;8.332;2022-07-21T11:40:05;27.40;99.90
59703;DHT22;45570;48.782;8.332;2022-07-21T11:42:37;27.40;99.90
59703;DHT22;45570;48.782;8.332;2022-07-21T11:45:07;27.90;99.90
59703;DHT22;45570;48.782;8.332;2022-07-21T11:47:36;28.20;99.90
59703;DHT22;45570;48.782;8.332;2022-07-21T11:50:08;28.10;99.90
59703;DHT22;45570;48.782;8.332;2022-07-21T11:52:39;28.20;99.90
59703;DHT22;45570;48.782;8.332;2022-07-21T11:55:09;28.30;99.90
59703;DHT22;45570;48.782;8.332;2022-07-21T11:57:44;28.60;99.90
59703;DHT22;45570;48.782;8.332;2022-07-21T12:00:15;29.10;99.90
59703;DHT22;45570;48.782;8.332;2022-07-21T12:02:49;29.30;99.90
59703;DHT22;45570;48.782;8.332;2022-07-21T12:05:22;28.80;99.90
59703;DHT22;45570;48.782;8.332;2022-07-21T12:08:14;28.50;99.90
59703;DHT22;45570;48.782;8.332;2022-07-21T12:10:50;28.20;99.90
59703;DHT22;45570;48.782;8.332;2022-07-21T12:13:21;28.40;99.90
59703;DHT22;45570;48.782;8.332;2022-07-21T12:15:50;28.40;99.90
59703;DHT22;45570;48.782;8.332;2022-07-21T12:18:22;28.10;99.90
59703;DHT22;45570;48.782;8.332;2022-07-21T12:21:01;28.00;99.90
59703;DHT22;45570;48.782;8.332;2022-07-21T12:23:31;28.10;99.90
59703;DHT22;45570;48.782;8.332;2022-07-21T12:26:01;28.60;99.90
59703;DHT22;45570;48.782;8.332;2022-07-21T12:28:43;28.90;99.90
59703;DHT22;45570;48.782;8.332;2022-07-21T12:31:15;29.00;99.90
59703;DHT22;45570;48.782;8.332;2022-07-21T12:33:49;28.80;99.90
59703;DHT22;45570;48.782;8.332;2022-07-21T12:36:38;28.90;99.90
59703;DHT22;45570;48.782;8.332;2022-07-21T12:39:16;29.00;99.90
59703;DHT22;45570;48.782;8.332;2022-07-21T12:42:08;29.20;99.90
59703;DHT22;45570;48.782;8.332;2022-07-21T12:44:38;29.50;99.90
59703;DHT22;45570;48.782;8.332;2022-07-21T12:47:15;29.40;99.90
59703;DHT22;45570;48.782;8.332;2022-07-21T12:49:58;29.40;99.50
59703;DHT22;45570;48.782;8.332;2022-07-21T12:52:41;29.70;98.70
59703;DHT22;45570;48.782;8.332;2022-07-21T12:55:10;29.70;98.20
59703;DHT22;45570;48.782;8.332;2022-07-21T12:57:39;29.80;98.10
59703;DHT22;45570;48.782;8.332;2022-07-21T13:00:10;29.70;96.60
59703;DHT22;45570;48.782;8.332;2022-07-21T13:02:46;29.60;98.10
59703;DHT22;45570;48.782;8.332;2022-07-21T13:05:15;29.20;96.20
59703;DHT22;45570;48.782;8.332;2022-07-21T13:07:44;29.10;97.50
59703;DHT22;45570;48.782;8.332;2022-07-21T13:10:13;29.20;99.90
59703;DHT22;45570;48.782;8.332;2022-07-21T13:12:42;29.30;99.90
59703;DHT22;45570;48.782;8.332;2022-07-21T13:15:13;29.60;98.30
59703;DHT22;45570;48.782;8.332;2022-07-21T13:17:42;30.00;99.90
59703;DHT22;45570;48.782;8.332;2022-07-21T13:20:12;30.10;96.10
59703;DHT22;45570;48.782;8.332;2022-07-21T13:22:42;30.10;96.40
59703;DHT22;45570;48.782;8.332;2022-07-21T13:25:11;30.00;97.70
59703;DHT22;45570;48.782;8.332;2022-07-21T13:27:40;30.10;97.20
59703;DHT22;45570;48.782;8.332;2022-07-21T13:30:17;30.20;99.00
59703;DHT22;45570;48.782;8.332;2022-07-21T13:32:46;30.20;96.50
59703;DHT22;45570;48.782;8.332;2022-07-21T13:35:15;29.80;97.20
59703;DHT22;45570;48.782;8.332;2022-07-21T13:37:52;29.40;97.10
59703;DHT22;45570;48.782;8.332;2022-07-21T13:40:21;29.10;96.40
59703;DHT22;45570;48.782;8.332;2022-07-21T13:43:10;28.70;99.00
59703;DHT22;45570;48.782;8.332;2022-07-21T13:46:01;28.50;99.90
59703;DHT22;45570;48.782;8.332;2022-07-21T13:48:30;28.40;97.80
59703;DHT22;45570;48.782;8.332;2022-07-21T13:51:06;28.40;99.60
59703;DHT22;45570;48.782;8.332;2022-07-21T13:53:36;28.30;98.80
59703;DHT22;45570;48.782;8.332;2022-07-21T13:56:06;28.30;99.60
59703;DHT22;45570;48.782;8.332;2022-07-21T13:58:34;28.20;98.20
59703;DHT22;45570;48.782;8.332;2022-07-21T14:01:05;28.50;99.90
59703;DHT22;45570;48.782;8.332;2022-07-21T14:03:35;28.80;96.20
59703;DHT22;45570;48.782;8.332;2022-07-21T14:06:05;29.00;98.10
59703;DHT22;45570;48.782;8.332;2022-07-21T14:08:34;29.00;97.50
59703;DHT22;45570;48.782;8.332;2022-07-21T14:11:03;29.10;99.40
59703;DHT22;45570;48.782;8.332;2022-07-21T14:13:33;29.30;95.60
59703;DHT22;45570;48.782;8.332;2022-07-21T14:16:04;29.30;96.30
59703;DHT22;45570;48.782;8.332;2022-07-21T14:18:33;29.30;95.10
59703;DHT22;45570;48.782;8.332;2022-07-21T14:21:02;29.40;95.60
59703;DHT22;45570;48.782;8.332;2022-07-21T14:23:31;29.40;93.30
59703;DHT22;45570;48.782;8.332;2022-07-21T14:26:01;29.50;93.90
59703;DHT22;45570;48.782;8.332;2022-07-21T14:28:31;29.50;93.20
59703;DHT22;45570;48.782;8.332;2022-07-21T14:30:59;29.30;96.70
59703;DHT22;45570;48.782;8.332;2022-07-21T14:33:30;29.20;95.30
59703;DHT22;45570;48.782;8.332;2022-07-21T14:35:59;28.90;95.20
59703;DHT22;45570;48.782;8.332;2022-07-21T14:38:28;28.70;97.50
59703;DHT22;45570;48.782;8.332;2022-07-21T14:40:56;28.90;97.20
59703;DHT22;45570;48.782;8.332;2022-07-21T14:43:26;29.20;97.40
59703;DHT22;45570;48.782;8.332;2022-07-21T14:45:55;29.50;94.40
59703;DHT22;45570;48.782;8.332;2022-07-21T14:48:24;29.70;92.50
59703;DHT22;45570;48.782;8.332;2022-07-21T14:50:54;29.40;91.90
59703;DHT22;45570;48.782;8.332;2022-07-21T14:53:23;29.60;92.70
59703;DHT22;45570;48.782;8.332;2022-07-21T14:55:52;29.70;91.50
59703;DHT22;45570;48.782;8.332;2022-07-21T14:58:20;29.90;91.70
59703;DHT22;45570;48.782;8.332;2022-07-21T15:00:50;29.80;90.70
59703;DHT22;45570;48.782;8.332;2022-07-21T15:03:19;29.70;90.20
59703;DHT22;45570;48.782;8.332;2022-07-21T15:05:48;29.40;90.80
59703;DHT22;45570;48.782;8.332;2022-07-21T15:08:18;29.30;92.00
59703;DHT22;45570;48.782;8.332;2022-07-21T15:10:47;29.30;92.50
59703;DHT22;45570;48.782;8.332;2022-07-21T15:13:16;29.30;91.80
59703;DHT22;45570;48.782;8.332;2022-07-21T15:15:45;29.10;91.70
59703;DHT22;45570;48.782;8.332;2022-07-21T15:18:14;29.20;90.80
59703;DHT22;45570;48.782;8.332;2022-07-21T15:20:44;29.30;90.30
59703;DHT22;45570;48.782;8.332;2022-07-21T15:23:13;29.40;90.80
59703;DHT22;45570;48.782;8.332;2022-07-21T15:25:44;29.30;89.60
59703;DHT22;45570;48.782;8.332;2022-07-21T15:28:13;29.00;87.50
59703;DHT22;45570;48.782;8.332;2022-07-21T15:30:41;29.00;89.80
59703;DHT22;45570;48.782;8.332;2022-07-21T15:33:11;29.10;87.90
59703;DHT22;45570;48.782;8.332;2022-07-21T15:35:40;29.00;89.70
59703;DHT22;45570;48.782;8.332;2022-07-21T15:38:09;29.00;90.10
59703;DHT22;45570;48.782;8.332;2022-07-21T15:40:39;29.10;89.80
59703;DHT22;45570;48.782;8.332;2022-07-21T15:43:10;29.20;89.80
59703;DHT22;45570;48.782;8.332;2022-07-21T15:45:39;29.30;90.00
59703;DHT22;45570;48.782;8.332;2022-07-21T15:48:08;29.30;90.10
59703;DHT22;45570;48.782;8.332;2022-07-21T15:50:38;29.10;85.60
59703;DHT22;45570;48.782;8.332;2022-07-21T15:53:07;29.00;88.70
59703;DHT22;45570;48.782;8.332;2022-07-21T15:55:36;29.00;87.80
59703;DHT22;45570;48.782;8.332;2022-07-21T15:58:04;29.30;86.00
59703;DHT22;45570;48.782;8.332;2022-07-21T16:00:35;29.40;84.70
59703;DHT22;45570;48.782;8.332;2022-07-21T16:03:03;29.40;89.90
59703;DHT22;45570;48.782;8.332;2022-07-21T16:05:32;29.40;89.30
59703;DHT22;45570;48.782;8.332;2022-07-21T16:08:02;29.50;84.50
59703;DHT22;45570;48.782;8.332;2022-07-21T16:10:31;29.50;85.40
59703;DHT22;45570;48.782;8.332;2022-07-21T16:13:00;29.30;84.70
59703;DHT22;45570;48.782;8.332;2022-07-21T16:15:28;29.30;85.20
59703;DHT22;45570;48.782;8.332;2022-07-21T16:17:59;29.30;85.70
59703;DHT22;45570;48.782;8.332;2022-07-21T16:20:28;29.10;87.30
59703;DHT22;45570;48.782;8.332;2022-07-21T16:22:57;28.90;87.30
59703;DHT22;45570;48.782;8.332;2022-07-21T16:25:26;29.10;84.70
59703;DHT22;45570;48.782;8.332;2022-07-21T16:27:55;29.00;85.50
59703;DHT22;45570;48.782;8.332;2022-07-21T16:30:23;29.00;87.70
59703;DHT22;45570;48.782;8.332;2022-07-21T16:32:52;29.00;84.70
59703;DHT22;45570;48.782;8.332;2022-07-21T16:35:22;29.10;85.20
59703;DHT22;45570;48.782;8.332;2022-07-21T16:37:51;28.80;84.30
59703;DHT22;45570;48.782;8.332;2022-07-21T16:40:20;28.80;86.90
59703;DHT22;45570;48.782;8.332;2022-07-21T16:42:50;28.90;89.60
59703;DHT22;45570;48.782;8.332;2022-07-21T16:45:20;28.80;88.90
59703;DHT22;45570;48.782;8.332;2022-07-21T16:47:49;29.00;87.50
59703;DHT22;45570;48.782;8.332;2022-07-21T16:50:18;29.30;86.80
59703;DHT22;45570;48.782;8.332;2022-07-21T16:52:48;29.30;85.80
59703;DHT22;45570;48.782;8.332;2022-07-21T16:55:17;29.30;85.80
59703;DHT22;45570;48.782;8.332;2022-07-21T16:57:46;29.40;88.90
59703;DHT22;45570;48.782;8.332;2022-07-21T17:00:15;29.20;87.40
59703;DHT22;45570;48.782;8.332;2022-07-21T17:02:45;29.10;86.20
59703;DHT22;45570;48.782;8.332;2022-07-21T17:05:14;29.00;87.70
59703;DHT22;45570;48.782;8.332;2022-07-21T17:07:43;28.90;89.00
59703;DHT22;45570;48.782;8.332;2022-07-21T17:10:13;28.80;89.10
59703;DHT22;45570;48.782;8.332;2022-07-21T17:12:42;28.50;89.10
59703;DHT22;45570;48.782;8.332;2022-07-21T17:15:12;28.30;90.50
59703;DHT22;45570;48.782;8.332;2022-07-21T17:17:42;28.20;90.00
59703;DHT22;45570;48.782;8.332;2022-07-21T17:20:17;27.90;91.80
59703;DHT22;45570;48.782;8.332;2022-07-21T17:22:46;27.70;93.30
59703;DHT22;45570;48.782;8.332;2022-07-21T17:25:16;27.50;94.00
59703;DHT22;45570;48.782;8.332;2022-07-21T17:27:45;27.20;93.30
59703;DHT22;45570;48.782;8.332;2022-07-21T17:30:18;27.10;95.30
59703;DHT22;45570;48.782;8.332;2022-07-21T17:32:50;26.90;93.80
59703;DHT22;45570;48.782;8.332;2022-07-21T17:35:19;26.90;93.50
59703;DHT22;45570;48.782;8.332;2022-07-21T17:37:48;26.80;94.20
59703;DHT22;45570;48.782;8.332;2022-07-21T17:40:19;26.70;95.90
59703;DHT22;45570;48.782;8.332;2022-07-21T17:42:48;26.60;97.00
59703;DHT22;45570;48.782;8.332;2022-07-21T17:45:17;26.40;97.00
59703;DHT22;45570;48.782;8.332;2022-07-21T17:47:47;26.30;95.40
59703;DHT22;45570;48.782;8.332;2022-07-21T17:50:18;26.30;95.60
59703;DHT22;45570;48.782;8.332;2022-07-21T17:52:48;26.20;96.00
59703;DHT22;45570;48.782;8.332;2022-07-21T17:55:17;26.30;97.10
59703;DHT22;45570;48.782;8.332;2022-07-21T17:57:47;26.20;98.80
59703;DHT22;45570;48.782;8.332;2022-07-21T18:00:33;26.00;97.90
59703;DHT22;45570;48.782;8.332;2022-07-21T18:03:02;26.00;97.40
59703;DHT22;45570;48.782;8.332;2022-07-21T18:05:31;25.90;98.00